sensor_id;sensor_type;location;lat;lon;timestamp;P1;durP1;ratioP1;P2;durP2;ratioP2
7289;SDS011;63176;52.678;13.250;2023-04-10T00:01:00;33.73;;;20.07;;
7289;SDS011;63176;52.678;13.250;2023-04-10T00:03:25;27.13;;;17.33;;
7289;SDS011;63176;52.678;13.250;2023-04-10T00:05:52;28.67;;;17.40;;
7289;SDS011;63176;52.678;13.250;2023-04-10T00:08:21;31.15;;;17.65;;
7289;SDS011;63176;52.678;13.250;2023-04-10T00:10:47;35.88;;;16.95;;
7289;SDS011;63176;52.678;13.250;2023-04-10T00:13:13;32.43;;;18.00;;
7289;SDS011;63176;52.678;13.250;2023-04-10T00:15:40;30.48;;;17.40;;
7289;SDS011;63176;52.678;13.250;2023-04-10T00:18:06;31.80;;;18.67;;
7289;SDS011;63176;52.678;13.250;2023-04-10T00:20:31;33.17;;;18.30;;
7289;SDS011;63176;52.678;13.250;2023-04-10T00:22:57;29.63;;;17.73;;
7289;SDS011;63176;52.678;13.250;2023-04-10T00:25:23;36.60;;;17.90;;
7289;SDS011;63176;52.678;13.250;2023-04-10T00:27:48;35.77;;;19.30;;
7289;SDS011;63176;52.678;13.250;2023-04-10T00:30:14;29.60;;;17.17;;
7289;SDS011;63176;52.678;13.250;2023-04-10T00:32:40;26.60;;;17.10;;
7289;SDS011;63176;52.678;13.250;2023-04-10T00:35:06;26.67;;;16.60;;
7289;SDS011;63176;52.678;13.250;2023-04-10T00:37:32;29.33;;;17.10;;
7289;SDS011;63176;52.678;13.250;2023-04-10T00:39:58;33.17;;;17.43;;
7289;SDS011;63176;52.678;13.250;2023-04-10T00:42:24;26.35;;;16.08;;
7289;SDS011;63176;52.678;13.250;2023-04-10T00:44:50;29.50;;;17.33;;
7289;SDS011;63176;52.678;13.250;2023-04-10T00:47:15;30.00;;;16.90;;
7289;SDS011;63176;52.678;13.250;2023-04-10T00:49:41;23.50;;;16.33;;
7289;SDS011;63176;52.678;13.250;2023-04-10T00:52:08;26.92;;;16.85;;
7289;SDS011;63176;52.678;13.250;2023-04-10T00:54:34;22.95;;;16.08;;
7289;SDS011;63176;52.678;13.250;2023-04-10T00:57:01;36.13;;;19.30;;
7289;SDS011;63176;52.678;13.250;2023-04-10T00:59:28;34.92;;;19.02;;
7289;SDS011;63176;52.678;13.250;2023-04-10T01:01:54;34.38;;;18.40;;
7289;SDS011;63176;52.678;13.250;2023-04-10T01:04:20;28.53;;;17.80;;
7289;SDS011;63176;52.678;13.250;2023-04-10T01:06:52;35.20;;;18.60;;
7289;SDS011;63176;52.678;13.250;2023-04-10T01:15:14;34.67;;;20.55;;
7289;SDS011;63176;52.678;13.250;2023-04-10T01:20:31;36.47;;;19.83;;
7289;SDS011;63176;52.678;13.250;2023-04-10T01:25:47;34.67;;;18.23;;
7289;SDS011;63176;52.678;13.250;2023-04-10T01:31:11;26.00;;;14.52;;
7289;SDS011;63176;52.678;13.250;2023-04-10T01:33:51;25.30;;;16.17;;
7289;SDS011;63176;52.678;13.250;2023-04-10T01:36:26;28.55;;;16.73;;
7289;SDS011;63176;52.678;13.250;2023-04-10T01:38:57;31.40;;;16.73;;
7289;SDS011;63176;52.678;13.250;2023-04-10T01:41:24;23.88;;;15.13;;
7289;SDS011;63176;52.678;13.250;2023-04-10T01:43:51;30.27;;;15.40;;
7289;SDS011;63176;52.678;13.250;2023-04-10T01:46:19;26.55;;;15.82;;
7289;SDS011;63176;52.678;13.250;2023-04-10T01:48:46;26.73;;;15.52;;
7289;SDS011;63176;52.678;13.250;2023-04-10T01:51:13;27.35;;;16.05;;
7289;SDS011;63176;52.678;13.250;2023-04-10T01:53:40;26.55;;;15.43;;
7289;SDS011;63176;52.678;13.250;2023-04-10T01:56:10;23.65;;;15.15;;
7289;SDS011;63176;52.678;13.250;2023-04-10T01:58:37;26.45;;;15.80;;
7289;SDS011;63176;52.678;13.250;2023-04-10T02:01:02;25.73;;;15.90;;
7289;SDS011;63176;52.678;13.250;2023-04-10T02:03:28;30.33;;;16.33;;
7289;SDS011;63176;52.678;13.250;2023-04-10T02:08:47;24.10;;;16.33;;
7289;SDS011;63176;52.678;13.250;2023-04-10T02:14:02;25.35;;;14.88;;
7289;SDS011;63176;52.678;13.250;2023-04-10T02:16:31;23.85;;;15.48;;
7289;SDS011;63176;52.678;13.250;2023-04-10T02:18:57;25.20;;;15.15;;
7289;SDS011;63176;52.678;13.250;2023-04-10T02:21:25;23.80;;;15.13;;
7289;SDS011;63176;52.678;13.250;2023-04-10T02:23:51;27.63;;;15.02;;
7289;SDS011;63176;52.678;13.250;2023-04-10T02:26:17;29.83;;;14.87;;
7289;SDS011;63176;52.678;13.250;2023-04-10T02:28:42;26.43;;;15.80;;
7289;SDS011;63176;52.678;13.250;2023-04-10T02:31:08;26.83;;;14.97;;
7289;SDS011;63176;52.678;13.250;2023-04-10T02:33:34;26.17;;;15.00;;
7289;SDS011;63176;52.678;13.250;2023-04-10T02:36:00;26.07;;;15.10;;
7289;SDS011;63176;52.678;13.250;2023-04-10T02:38:25;31.55;;;15.80;;
7289;SDS011;63176;52.678;13.250;2023-04-10T02:40:51;24.13;;;14.00;;
7289;SDS011;63176;52.678;13.250;2023-04-10T02:43:17;24.20;;;13.93;;
7289;SDS011;63176;52.678;13.250;2023-04-10T02:45:42;25.17;;;14.20;;
7289;SDS011;63176;52.678;13.250;2023-04-10T02:48:08;25.00;;;14.87;;
7289;SDS011;63176;52.678;13.250;2023-04-10T02:50:35;20.10;;;13.02;;
7289;SDS011;63176;52.678;13.250;2023-04-10T02:53:00;22.53;;;13.50;;
7289;SDS011;63176;52.678;13.250;2023-04-10T02:55:26;26.20;;;14.47;;
7289;SDS011;63176;52.678;13.250;2023-04-10T02:57:52;24.13;;;14.10;;
7289;SDS011;63176;52.678;13.250;2023-04-10T03:00:17;28.40;;;14.30;;
7289;SDS011;63176;52.678;13.250;2023-04-10T03:02:43;25.37;;;14.43;;
7289;SDS011;63176;52.678;13.250;2023-04-10T03:05:09;26.23;;;14.30;;
7289;SDS011;63176;52.678;13.250;2023-04-10T03:07:35;20.25;;;12.65;;
7289;SDS011;63176;52.678;13.250;2023-04-10T03:10:01;21.30;;;13.43;;
7289;SDS011;63176;52.678;13.250;2023-04-10T03:12:26;26.27;;;14.60;;
7289;SDS011;63176;52.678;13.250;2023-04-10T03:14:52;23.70;;;13.77;;
7289;SDS011;63176;52.678;13.250;2023-04-10T03:17:18;26.53;;;14.40;;
7289;SDS011;63176;52.678;13.250;2023-04-10T03:19:43;19.53;;;11.90;;
7289;SDS011;63176;52.678;13.250;2023-04-10T03:22:09;21.63;;;12.40;;
7289;SDS011;63176;52.678;13.250;2023-04-10T03:24:35;21.67;;;13.30;;
7289;SDS011;63176;52.678;13.250;2023-04-10T03:27:02;21.73;;;13.25;;
7289;SDS011;63176;52.678;13.250;2023-04-10T03:29:27;25.00;;;13.00;;
7289;SDS011;63176;52.678;13.250;2023-04-10T03:31:53;23.83;;;11.87;;
7289;SDS011;63176;52.678;13.250;2023-04-10T03:34:19;25.67;;;13.40;;
7289;SDS011;63176;52.678;13.250;2023-04-10T03:36:44;20.07;;;11.67;;
7289;SDS011;63176;52.678;13.250;2023-04-10T03:39:10;19.43;;;10.83;;
7289;SDS011;63176;52.678;13.250;2023-04-10T03:41:36;19.80;;;10.63;;
7289;SDS011;63176;52.678;13.250;2023-04-10T03:44:02;21.47;;;11.30;;
7289;SDS011;63176;52.678;13.250;2023-04-10T03:46:28;24.63;;;11.30;;
7289;SDS011;63176;52.678;13.250;2023-04-10T03:48:54;17.63;;;11.17;;
7289;SDS011;63176;52.678;13.250;2023-04-10T03:51:19;22.67;;;11.63;;
7289;SDS011;63176;52.678;13.250;2023-04-10T03:53:47;22.48;;;11.43;;
7289;SDS011;63176;52.678;13.250;2023-04-10T03:56:13;19.07;;;12.17;;
7289;SDS011;63176;52.678;13.250;2023-04-10T03:58:38;17.43;;;9.50;;
7289;SDS011;63176;52.678;13.250;2023-04-10T04:01:04;17.90;;;11.50;;
7289;SDS011;63176;52.678;13.250;2023-04-10T04:03:30;12.77;;;9.53;;
7289;SDS011;63176;52.678;13.250;2023-04-10T04:05:55;18.27;;;11.20;;
7289;SDS011;63176;52.678;13.250;2023-04-10T04:08:21;14.97;;;9.43;;
7289;SDS011;63176;52.678;13.250;2023-04-10T04:10:46;14.73;;;9.93;;
7289;SDS011;63176;52.678;13.250;2023-04-10T04:13:12;19.23;;;10.33;;
7289;SDS011;63176;52.678;13.250;2023-04-10T04:15:38;17.33;;;9.07;;
7289;SDS011;63176;52.678;13.250;2023-04-10T04:18:03;17.00;;;10.43;;
7289;SDS011;63176;52.678;13.250;2023-04-10T04:20:29;16.57;;;10.20;;
7289;SDS011;63176;52.678;13.250;2023-04-10T04:22:54;17.57;;;9.90;;
7289;SDS011;63176;52.678;13.250;2023-04-10T04:25:20;16.40;;;8.90;;
7289;SDS011;63176;52.678;13.250;2023-04-10T04:27:46;17.30;;;9.63;;
7289;SDS011;63176;52.678;13.250;2023-04-10T04:30:11;15.63;;;9.10;;
7289;SDS011;63176;52.678;13.250;2023-04-10T04:32:37;21.37;;;9.70;;
7289;SDS011;63176;52.678;13.250;2023-04-10T04:35:03;16.10;;;9.20;;
7289;SDS011;63176;52.678;13.250;2023-04-10T04:37:29;19.45;;;10.80;;
7289;SDS011;63176;52.678;13.250;2023-04-10T04:39:54;22.03;;;10.47;;
7289;SDS011;63176;52.678;13.250;2023-04-10T04:42:20;15.47;;;9.67;;
7289;SDS011;63176;52.678;13.250;2023-04-10T04:44:45;16.37;;;9.43;;
7289;SDS011;63176;52.678;13.250;2023-04-10T04:47:11;15.27;;;9.27;;
7289;SDS011;63176;52.678;13.250;2023-04-10T04:49:37;17.57;;;9.70;;
7289;SDS011;63176;52.678;13.250;2023-04-10T04:52:02;16.07;;;9.67;;
7289;SDS011;63176;52.678;13.250;2023-04-10T04:54:28;20.97;;;9.97;;
7289;SDS011;63176;52.678;13.250;2023-04-10T04:56:55;13.50;;;7.93;;
7289;SDS011;63176;52.678;13.250;2023-04-10T04:59:21;16.80;;;9.57;;
7289;SDS011;63176;52.678;13.250;2023-04-10T05:01:47;17.63;;;9.17;;
7289;SDS011;63176;52.678;13.250;2023-04-10T05:04:13;14.60;;;8.33;;
7289;SDS011;63176;52.678;13.250;2023-04-10T05:06:38;16.13;;;8.77;;
7289;SDS011;63176;52.678;13.250;2023-04-10T05:09:04;14.90;;;8.93;;
7289;SDS011;63176;52.678;13.250;2023-04-10T05:11:29;18.53;;;9.70;;
7289;SDS011;63176;52.678;13.250;2023-04-10T05:13:55;20.70;;;10.77;;
7289;SDS011;63176;52.678;13.250;2023-04-10T05:16:20;14.80;;;9.27;;
7289;SDS011;63176;52.678;13.250;2023-04-10T05:18:46;17.07;;;8.40;;
7289;SDS011;63176;52.678;13.250;2023-04-10T05:21:12;12.60;;;8.10;;
7289;SDS011;63176;52.678;13.250;2023-04-10T05:23:37;13.80;;;8.50;;
7289;SDS011;63176;52.678;13.250;2023-04-10T05:26:03;17.10;;;9.70;;
7289;SDS011;63176;52.678;13.250;2023-04-10T05:28:30;16.20;;;8.93;;
7289;SDS011;63176;52.678;13.250;2023-04-10T05:30:55;14.27;;;8.30;;
7289;SDS011;63176;52.678;13.250;2023-04-10T05:33:21;15.00;;;8.67;;
7289;SDS011;63176;52.678;13.250;2023-04-10T05:35:46;15.90;;;8.20;;
7289;SDS011;63176;52.678;13.250;2023-04-10T05:38:13;12.60;;;8.10;;
7289;SDS011;63176;52.678;13.250;2023-04-10T05:40:38;12.97;;;8.90;;
7289;SDS011;63176;52.678;13.250;2023-04-10T05:43:04;15.57;;;9.20;;
7289;SDS011;63176;52.678;13.250;2023-04-10T05:45:29;14.70;;;8.70;;
7289;SDS011;63176;52.678;13.250;2023-04-10T05:47:55;14.53;;;7.50;;
7289;SDS011;63176;52.678;13.250;2023-04-10T05:50:21;19.73;;;8.80;;
7289;SDS011;63176;52.678;13.250;2023-04-10T05:52:46;12.30;;;7.20;;
7289;SDS011;63176;52.678;13.250;2023-04-10T05:55:12;20.23;;;8.30;;
7289;SDS011;63176;52.678;13.250;2023-04-10T05:57:38;15.93;;;8.17;;
7289;SDS011;63176;52.678;13.250;2023-04-10T06:00:04;11.35;;;8.10;;
7289;SDS011;63176;52.678;13.250;2023-04-10T06:02:30;19.02;;;8.65;;
7289;SDS011;63176;52.678;13.250;2023-04-10T06:04:56;16.20;;;7.38;;
7289;SDS011;63176;52.678;13.250;2023-04-10T06:07:22;12.90;;;7.80;;
7289;SDS011;63176;52.678;13.250;2023-04-10T06:09:47;14.10;;;7.70;;
7289;SDS011;63176;52.678;13.250;2023-04-10T06:12:13;12.40;;;7.37;;
7289;SDS011;63176;52.678;13.250;2023-04-10T06:14:39;18.57;;;8.60;;
7289;SDS011;63176;52.678;13.250;2023-04-10T06:17:05;12.77;;;8.03;;
7289;SDS011;63176;52.678;13.250;2023-04-10T06:19:30;19.17;;;9.20;;
7289;SDS011;63176;52.678;13.250;2023-04-10T06:21:56;16.30;;;7.63;;
7289;SDS011;63176;52.678;13.250;2023-04-10T06:24:21;8.60;;;7.00;;
7289;SDS011;63176;52.678;13.250;2023-04-10T06:26:47;16.07;;;8.80;;
7289;SDS011;63176;52.678;13.250;2023-04-10T06:29:13;12.43;;;8.27;;
7289;SDS011;63176;52.678;13.250;2023-04-10T06:31:38;14.57;;;7.70;;
7289;SDS011;63176;52.678;13.250;2023-04-10T06:34:04;12.00;;;7.30;;
7289;SDS011;63176;52.678;13.250;2023-04-10T06:36:30;14.47;;;8.23;;
7289;SDS011;63176;52.678;13.250;2023-04-10T06:38:55;12.67;;;7.40;;
7289;SDS011;63176;52.678;13.250;2023-04-10T06:41:21;14.70;;;8.40;;
7289;SDS011;63176;52.678;13.250;2023-04-10T06:43:46;13.10;;;7.80;;
7289;SDS011;63176;52.678;13.250;2023-04-10T06:46:12;15.97;;;8.13;;
7289;SDS011;63176;52.678;13.250;2023-04-10T06:48:38;14.10;;;7.60;;
7289;SDS011;63176;52.678;13.250;2023-04-10T06:51:03;13.00;;;8.00;;
7289;SDS011;63176;52.678;13.250;2023-04-10T06:53:29;11.70;;;8.10;;
7289;SDS011;63176;52.678;13.250;2023-04-10T06:55:55;11.23;;;7.73;;
7289;SDS011;63176;52.678;13.250;2023-04-10T06:58:21;12.45;;;8.50;;
7289;SDS011;63176;52.678;13.250;2023-04-10T07:00:48;19.10;;;9.50;;
7289;SDS011;63176;52.678;13.250;2023-04-10T07:03:13;14.73;;;8.63;;
7289;SDS011;63176;52.678;13.250;2023-04-10T07:05:39;16.23;;;9.73;;
7289;SDS011;63176;52.678;13.250;2023-04-10T07:08:05;16.53;;;8.83;;
7289;SDS011;63176;52.678;13.250;2023-04-10T07:10:31;15.23;;;8.77;;
7289;SDS011;63176;52.678;13.250;2023-04-10T07:12:57;22.40;;;11.07;;
7289;SDS011;63176;52.678;13.250;2023-04-10T07:15:23;16.57;;;8.77;;
7289;SDS011;63176;52.678;13.250;2023-04-10T07:17:49;17.55;;;9.70;;
7289;SDS011;63176;52.678;13.250;2023-04-10T07:20:15;14.80;;;9.77;;
7289;SDS011;63176;52.678;13.250;2023-04-10T07:22:40;17.17;;;10.77;;
7289;SDS011;63176;52.678;13.250;2023-04-10T07:25:06;15.70;;;10.33;;
7289;SDS011;63176;52.678;13.250;2023-04-10T07:27:32;15.50;;;10.40;;
7289;SDS011;63176;52.678;13.250;2023-04-10T07:29:58;18.80;;;10.30;;
7289;SDS011;63176;52.678;13.250;2023-04-10T07:32:24;19.10;;;10.60;;
7289;SDS011;63176;52.678;13.250;2023-04-10T07:34:50;17.20;;;10.83;;
7289;SDS011;63176;52.678;13.250;2023-04-10T07:37:15;21.47;;;10.60;;
7289;SDS011;63176;52.678;13.250;2023-04-10T07:39:42;20.02;;;10.55;;
7289;SDS011;63176;52.678;13.250;2023-04-10T07:42:08;19.63;;;11.33;;
7289;SDS011;63176;52.678;13.250;2023-04-10T07:44:35;18.75;;;11.65;;
7289;SDS011;63176;52.678;13.250;2023-04-10T07:47:01;21.10;;;11.53;;
7289;SDS011;63176;52.678;13.250;2023-04-10T07:49:27;24.38;;;10.57;;
7289;SDS011;63176;52.678;13.250;2023-04-10T07:51:53;27.73;;;12.43;;
7289;SDS011;63176;52.678;13.250;2023-04-10T07:54:18;17.57;;;10.93;;
7289;SDS011;63176;52.678;13.250;2023-04-10T07:56:44;19.10;;;10.67;;
7289;SDS011;63176;52.678;13.250;2023-04-10T07:59:10;20.10;;;11.13;;
7289;SDS011;63176;52.678;13.250;2023-04-10T08:01:36;22.17;;;12.05;;
7289;SDS011;63176;52.678;13.250;2023-04-10T08:04:01;21.37;;;12.30;;
7289;SDS011;63176;52.678;13.250;2023-04-10T08:06:27;21.33;;;10.77;;
7289;SDS011;63176;52.678;13.250;2023-04-10T08:08:52;21.63;;;11.37;;
7289;SDS011;63176;52.678;13.250;2023-04-10T08:11:22;20.67;;;11.87;;
7289;SDS011;63176;52.678;13.250;2023-04-10T08:13:53;20.67;;;10.73;;
7289;SDS011;63176;52.678;13.250;2023-04-10T08:16:24;22.23;;;11.05;;
7289;SDS011;63176;52.678;13.250;2023-04-10T08:18:52;18.23;;;10.98;;
7289;SDS011;63176;52.678;13.250;2023-04-10T08:21:18;19.95;;;12.18;;
7289;SDS011;63176;52.678;13.250;2023-04-10T08:23:52;21.75;;;11.27;;
7289;SDS011;63176;52.678;13.250;2023-04-10T08:26:18;21.17;;;12.05;;
7289;SDS011;63176;52.678;13.250;2023-04-10T08:28:48;28.92;;;10.65;;
7289;SDS011;63176;52.678;13.250;2023-04-10T08:31:16;19.20;;;11.18;;
7289;SDS011;63176;52.678;13.250;2023-04-10T08:33:43;17.10;;;11.20;;
7289;SDS011;63176;52.678;13.250;2023-04-10T08:36:09;21.87;;;12.30;;
7289;SDS011;63176;52.678;13.250;2023-04-10T08:38:35;21.58;;;12.10;;
7289;SDS011;63176;52.678;13.250;2023-04-10T08:41:00;17.97;;;10.00;;
7289;SDS011;63176;52.678;13.250;2023-04-10T08:43:26;18.77;;;10.90;;
7289;SDS011;63176;52.678;13.250;2023-04-10T08:45:52;19.17;;;10.73;;
7289;SDS011;63176;52.678;13.250;2023-04-10T08:48:18;20.30;;;10.70;;
7289;SDS011;63176;52.678;13.250;2023-04-10T08:50:45;18.25;;;10.73;;
7289;SDS011;63176;52.678;13.250;2023-04-10T08:53:12;18.83;;;10.70;;
7289;SDS011;63176;52.678;13.250;2023-04-10T08:55:40;17.90;;;11.43;;
7289;SDS011;63176;52.678;13.250;2023-04-10T08:58:06;18.25;;;10.95;;
7289;SDS011;63176;52.678;13.250;2023-04-10T09:00:33;19.60;;;10.48;;
7289;SDS011;63176;52.678;13.250;2023-04-10T09:03:02;18.35;;;10.00;;
7289;SDS011;63176;52.678;13.250;2023-04-10T09:05:29;14.73;;;9.82;;
7289;SDS011;63176;52.678;13.250;2023-04-10T09:07:55;21.70;;;10.17;;
7289;SDS011;63176;52.678;13.250;2023-04-10T09:10:21;15.17;;;9.40;;
7289;SDS011;63176;52.678;13.250;2023-04-10T09:12:47;12.88;;;8.27;;
7289;SDS011;63176;52.678;13.250;2023-04-10T09:15:13;17.58;;;8.45;;
7289;SDS011;63176;52.678;13.250;2023-04-10T09:17:56;14.67;;;7.27;;
7289;SDS011;63176;52.678;13.250;2023-04-10T09:20:24;10.60;;;7.23;;
7289;SDS011;63176;52.678;13.250;2023-04-10T09:22:50;13.87;;;8.20;;
7289;SDS011;63176;52.678;13.250;2023-04-10T09:25:33;13.73;;;8.93;;
7289;SDS011;63176;52.678;13.250;2023-04-10T09:28:04;12.83;;;8.00;;
7289;SDS011;63176;52.678;13.250;2023-04-10T09:30:31;11.17;;;7.10;;
7289;SDS011;63176;52.678;13.250;2023-04-10T09:32:58;9.80;;;6.47;;
7289;SDS011;63176;52.678;13.250;2023-04-10T09:35:33;12.17;;;7.30;;
7289;SDS011;63176;52.678;13.250;2023-04-10T09:38:00;12.87;;;7.60;;
7289;SDS011;63176;52.678;13.250;2023-04-10T09:40:26;12.07;;;7.60;;
7289;SDS011;63176;52.678;13.250;2023-04-10T09:42:52;13.53;;;8.97;;
7289;SDS011;63176;52.678;13.250;2023-04-10T09:45:20;17.50;;;9.83;;
7289;SDS011;63176;52.678;13.250;2023-04-10T09:48:05;14.37;;;9.07;;
7289;SDS011;63176;52.678;13.250;2023-04-10T09:50:38;16.47;;;9.40;;
7289;SDS011;63176;52.678;13.250;2023-04-10T09:53:14;21.67;;;10.80;;
7289;SDS011;63176;52.678;13.250;2023-04-10T09:55:43;14.07;;;9.07;;
7289;SDS011;63176;52.678;13.250;2023-04-10T09:58:09;18.13;;;10.73;;
7289;SDS011;63176;52.678;13.250;2023-04-10T10:00:38;18.10;;;10.27;;
7289;SDS011;63176;52.678;13.250;2023-04-10T10:03:08;16.53;;;11.20;;
7289;SDS011;63176;52.678;13.250;2023-04-10T10:05:36;18.93;;;10.33;;
7289;SDS011;63176;52.678;13.250;2023-04-10T10:08:13;11.47;;;8.73;;
7289;SDS011;63176;52.678;13.250;2023-04-10T10:10:43;13.80;;;8.57;;
7289;SDS011;63176;52.678;13.250;2023-04-10T10:16:05;14.00;;;8.90;;
7289;SDS011;63176;52.678;13.250;2023-04-10T10:21:20;10.47;;;8.10;;
7289;SDS011;63176;52.678;13.250;2023-04-10T10:23:47;11.73;;;7.33;;
7289;SDS011;63176;52.678;13.250;2023-04-10T10:26:18;10.10;;;7.70;;
7289;SDS011;63176;52.678;13.250;2023-04-10T10:28:45;11.00;;;7.80;;
7289;SDS011;63176;52.678;13.250;2023-04-10T10:31:11;11.67;;;8.30;;
7289;SDS011;63176;52.678;13.250;2023-04-10T10:33:37;8.80;;;7.03;;
7289;SDS011;63176;52.678;13.250;2023-04-10T10:36:04;10.17;;;7.93;;
7289;SDS011;63176;52.678;13.250;2023-04-10T10:38:30;9.00;;;7.03;;
7289;SDS011;63176;52.678;13.250;2023-04-10T10:41:11;9.63;;;7.40;;
7289;SDS011;63176;52.678;13.250;2023-04-10T10:43:51;13.03;;;7.80;;
7289;SDS011;63176;52.678;13.250;2023-04-10T10:49:00;18.50;;;8.90;;
7289;SDS011;63176;52.678;13.250;2023-04-10T10:51:45;17.73;;;8.67;;
7289;SDS011;63176;52.678;13.250;2023-04-10T10:54:29;10.77;;;8.20;;
7289;SDS011;63176;52.678;13.250;2023-04-10T10:56:59;14.37;;;8.83;;
7289;SDS011;63176;52.678;13.250;2023-04-10T11:02:19;13.67;;;7.10;;
7289;SDS011;63176;52.678;13.250;2023-04-10T11:04:46;11.77;;;6.30;;
7289;SDS011;63176;52.678;13.250;2023-04-10T11:07:13;11.90;;;7.00;;
7289;SDS011;63176;52.678;13.250;2023-04-10T11:09:47;10.43;;;7.20;;
7289;SDS011;63176;52.678;13.250;2023-04-10T11:12:18;7.90;;;6.57;;
7289;SDS011;63176;52.678;13.250;2023-04-10T11:14:55;9.30;;;7.00;;
7289;SDS011;63176;52.678;13.250;2023-04-10T11:20:16;15.37;;;6.97;;
7289;SDS011;63176;52.678;13.250;2023-04-10T11:31:20;9.13;;;6.37;;
7289;SDS011;63176;52.678;13.250;2023-04-10T11:33:47;6.03;;;5.03;;
7289;SDS011;63176;52.678;13.250;2023-04-10T11:36:16;12.00;;;6.30;;
7289;SDS011;63176;52.678;13.250;2023-04-10T11:41:24;8.13;;;6.23;;
7289;SDS011;63176;52.678;13.250;2023-04-10T11:44:02;8.07;;;6.27;;
7289;SDS011;63176;52.678;13.250;2023-04-10T11:46:29;7.90;;;5.83;;
7289;SDS011;63176;52.678;13.250;2023-04-10T11:48:57;11.13;;;6.57;;
7289;SDS011;63176;52.678;13.250;2023-04-10T11:51:24;7.73;;;5.90;;
7289;SDS011;63176;52.678;13.250;2023-04-10T11:54:08;8.77;;;5.93;;
7289;SDS011;63176;52.678;13.250;2023-04-10T11:56:37;11.70;;;6.33;;
7289;SDS011;63176;52.678;13.250;2023-04-10T11:59:05;8.90;;;5.80;;
7289;SDS011;63176;52.678;13.250;2023-04-10T12:01:34;8.53;;;6.77;;
7289;SDS011;63176;52.678;13.250;2023-04-10T12:04:01;7.03;;;6.10;;
7289;SDS011;63176;52.678;13.250;2023-04-10T12:06:27;7.87;;;5.50;;
7289;SDS011;63176;52.678;13.250;2023-04-10T12:08:53;8.03;;;5.70;;
7289;SDS011;63176;52.678;13.250;2023-04-10T12:11:20;6.90;;;4.93;;
7289;SDS011;63176;52.678;13.250;2023-04-10T12:13:47;9.43;;;6.13;;
7289;SDS011;63176;52.678;13.250;2023-04-10T12:16:16;6.03;;;5.23;;
7289;SDS011;63176;52.678;13.250;2023-04-10T12:18:42;8.60;;;5.23;;
7289;SDS011;63176;52.678;13.250;2023-04-10T12:21:09;5.73;;;5.20;;
7289;SDS011;63176;52.678;13.250;2023-04-10T12:23:35;5.80;;;5.10;;
7289;SDS011;63176;52.678;13.250;2023-04-10T12:26:12;6.17;;;5.27;;
7289;SDS011;63176;52.678;13.250;2023-04-10T12:28:40;6.80;;;5.47;;
7289;SDS011;63176;52.678;13.250;2023-04-10T12:31:07;5.57;;;4.50;;
7289;SDS011;63176;52.678;13.250;2023-04-10T12:33:33;8.60;;;4.60;;
7289;SDS011;63176;52.678;13.250;2023-04-10T12:35:59;7.83;;;4.70;;
7289;SDS011;63176;52.678;13.250;2023-04-10T12:38:41;5.80;;;4.67;;
7289;SDS011;63176;52.678;13.250;2023-04-10T12:41:09;4.80;;;3.80;;
7289;SDS011;63176;52.678;13.250;2023-04-10T12:43:36;5.40;;;4.23;;
7289;SDS011;63176;52.678;13.250;2023-04-10T12:46:04;6.20;;;4.13;;
7289;SDS011;63176;52.678;13.250;2023-04-10T12:48:31;5.87;;;4.33;;
7289;SDS011;63176;52.678;13.250;2023-04-10T12:50:57;4.70;;;4.20;;
7289;SDS011;63176;52.678;13.250;2023-04-10T12:53:23;5.30;;;3.93;;
7289;SDS011;63176;52.678;13.250;2023-04-10T12:55:59;6.37;;;4.10;;
7289;SDS011;63176;52.678;13.250;2023-04-10T12:58:27;6.73;;;4.30;;
7289;SDS011;63176;52.678;13.250;2023-04-10T13:00:55;4.97;;;4.10;;
7289;SDS011;63176;52.678;13.250;2023-04-10T13:03:27;5.27;;;4.13;;
7289;SDS011;63176;52.678;13.250;2023-04-10T13:05:52;6.37;;;4.43;;
7289;SDS011;63176;52.678;13.250;2023-04-10T13:08:18;5.10;;;3.70;;
7289;SDS011;63176;52.678;13.250;2023-04-10T13:10:45;7.27;;;4.10;;
7289;SDS011;63176;52.678;13.250;2023-04-10T13:13:10;4.87;;;4.30;;
7289;SDS011;63176;52.678;13.250;2023-04-10T13:15:38;5.07;;;4.27;;
7289;SDS011;63176;52.678;13.250;2023-04-10T13:18:05;3.70;;;3.40;;
7289;SDS011;63176;52.678;13.250;2023-04-10T13:20:31;5.67;;;4.17;;
7289;SDS011;63176;52.678;13.250;2023-04-10T13:22:58;4.37;;;3.97;;
7289;SDS011;63176;52.678;13.250;2023-04-10T13:25:23;7.03;;;4.70;;
7289;SDS011;63176;52.678;13.250;2023-04-10T13:27:51;5.20;;;4.37;;
7289;SDS011;63176;52.678;13.250;2023-04-10T13:30:17;4.50;;;4.10;;
7289;SDS011;63176;52.678;13.250;2023-04-10T13:32:42;6.63;;;4.20;;
7289;SDS011;63176;52.678;13.250;2023-04-10T13:35:08;5.80;;;5.23;;
7289;SDS011;63176;52.678;13.250;2023-04-10T13:37:33;7.17;;;5.50;;
7289;SDS011;63176;52.678;13.250;2023-04-10T13:39:59;7.03;;;5.43;;
7289;SDS011;63176;52.678;13.250;2023-04-10T13:42:25;9.03;;;5.40;;
7289;SDS011;63176;52.678;13.250;2023-04-10T13:44:50;5.83;;;4.70;;
7289;SDS011;63176;52.678;13.250;2023-04-10T13:47:16;7.60;;;5.03;;
7289;SDS011;63176;52.678;13.250;2023-04-10T13:49:42;6.63;;;5.60;;
7289;SDS011;63176;52.678;13.250;2023-04-10T13:52:08;8.00;;;4.90;;
7289;SDS011;63176;52.678;13.250;2023-04-10T13:54:33;7.47;;;6.00;;
7289;SDS011;63176;52.678;13.250;2023-04-10T13:56:59;6.27;;;4.90;;
7289;SDS011;63176;52.678;13.250;2023-04-10T13:59:25;5.30;;;4.43;;
7289;SDS011;63176;52.678;13.250;2023-04-10T14:01:50;5.20;;;4.70;;
7289;SDS011;63176;52.678;13.250;2023-04-10T14:04:16;5.23;;;4.10;;
7289;SDS011;63176;52.678;13.250;2023-04-10T14:06:42;5.70;;;4.70;;
7289;SDS011;63176;52.678;13.250;2023-04-10T14:09:08;8.40;;;5.37;;
7289;SDS011;63176;52.678;13.250;2023-04-10T14:11:33;5.00;;;4.50;;
7289;SDS011;63176;52.678;13.250;2023-04-10T14:13:59;8.30;;;5.10;;
7289;SDS011;63176;52.678;13.250;2023-04-10T14:16:25;6.53;;;5.17;;
7289;SDS011;63176;52.678;13.250;2023-04-10T14:18:50;7.90;;;5.80;;
7289;SDS011;63176;52.678;13.250;2023-04-10T14:21:16;6.60;;;5.03;;
7289;SDS011;63176;52.678;13.250;2023-04-10T14:23:42;5.97;;;4.47;;
7289;SDS011;63176;52.678;13.250;2023-04-10T14:26:07;4.50;;;4.10;;
7289;SDS011;63176;52.678;13.250;2023-04-10T14:28:33;7.73;;;4.63;;
7289;SDS011;63176;52.678;13.250;2023-04-10T14:30:59;7.87;;;4.53;;
7289;SDS011;63176;52.678;13.250;2023-04-10T14:33:25;7.67;;;4.70;;
7289;SDS011;63176;52.678;13.250;2023-04-10T14:35:51;5.10;;;4.60;;
7289;SDS011;63176;52.678;13.250;2023-04-10T14:38:17;4.90;;;4.37;;
7289;SDS011;63176;52.678;13.250;2023-04-10T14:40:42;4.67;;;4.03;;
7289;SDS011;63176;52.678;13.250;2023-04-10T14:43:12;4.03;;;3.63;;
7289;SDS011;63176;52.678;13.250;2023-04-10T14:45:38;3.93;;;3.60;;
7289;SDS011;63176;52.678;13.250;2023-04-10T14:48:04;7.10;;;4.03;;
7289;SDS011;63176;52.678;13.250;2023-04-10T14:50:32;5.07;;;4.00;;
7289;SDS011;63176;52.678;13.250;2023-04-10T14:52:58;7.93;;;4.60;;
7289;SDS011;63176;52.678;13.250;2023-04-10T14:55:24;5.33;;;3.80;;
7289;SDS011;63176;52.678;13.250;2023-04-10T14:57:50;4.50;;;4.00;;
7289;SDS011;63176;52.678;13.250;2023-04-10T15:00:16;7.13;;;4.77;;
7289;SDS011;63176;52.678;13.250;2023-04-10T15:02:42;5.43;;;4.23;;
7289;SDS011;63176;52.678;13.250;2023-04-10T15:05:09;6.67;;;4.30;;
7289;SDS011;63176;52.678;13.250;2023-04-10T15:07:34;4.83;;;4.10;;
7289;SDS011;63176;52.678;13.250;2023-04-10T15:10:00;4.33;;;3.93;;
7289;SDS011;63176;52.678;13.250;2023-04-10T15:12:26;4.47;;;4.03;;
7289;SDS011;63176;52.678;13.250;2023-04-10T15:14:51;5.20;;;4.00;;
7289;SDS011;63176;52.678;13.250;2023-04-10T15:17:19;4.63;;;4.13;;